createdAt,value
2022-08-08T00:00:55.026Z,77.53
2022-08-08T00:00:55.166Z,75.00
2022-08-08T00:01:06.546Z,77.22
2022-08-08T00:02:04.131Z,80.15
2022-08-08T00:02:31.138Z,80.85
2022-08-08T00:02:43.038Z,81.05
2022-08-08T00:03:31.411Z,81.16
2022-08-08T00:03:53.195Z,79.34
2022-08-08T00:04:28.033Z,77.83
2022-08-08T00:05:02.930Z,79.88
2022-08-08T00:05:44.351Z,80.25
2022-08-08T00:06:13.430Z,75.04
2022-08-08T00:06:48.869Z,77.22
2022-08-08T00:07:23.867Z,78.17
2022-08-08T00:07:58.958Z,78.88
2022-08-08T00:08:34.152Z,79.88
2022-08-08T00:09:09.263Z,81.20
2022-08-08T00:09:44.386Z,79.99
2022-08-08T00:10:22.218Z,81.10
2022-08-08T00:10:54.704Z,81.80
2022-08-08T00:11:47.001Z,79.24
2022-08-08T00:12:09.303Z,80.69
2022-08-08T00:12:41.638Z,81.10
2022-08-08T00:13:20.519Z,77.76
2022-08-08T00:14:14.972Z,75.74
2022-08-08T00:14:59.177Z,77.66
2022-08-08T00:15:05.193Z,80.49
2022-08-08T00:15:56.434Z,80.59
2022-08-08T00:16:13.938Z,81.40
2022-08-08T00:16:49.252Z,77.97
2022-08-08T00:17:24.443Z,79.08
2022-08-08T00:18:02.992Z,80.29
2022-08-08T00:18:34.825Z,80.39
2022-08-08T00:19:10.242Z,79.68
2022-08-08T00:19:46.709Z,78.50
2022-08-08T00:20:20.734Z,77.86
2022-08-08T00:20:56.157Z,78.97
2022-08-08T00:21:39.832Z,80.39
2022-08-08T00:22:06.573Z,80.29
2022-08-08T00:22:42.027Z,81.20
2022-08-08T00:23:17.557Z,81.70
2022-08-08T00:23:52.734Z,83.62
2022-08-08T00:24:29.969Z,80.99
2022-08-08T00:25:03.168Z,81.40
2022-08-08T00:25:46.567Z,81.50
2022-08-08T00:26:26.161Z,82.51
2022-08-08T00:26:56.365Z,82.91
2022-08-08T00:27:32.827Z,78.67
2022-08-08T00:28:07.036Z,80.63
2022-08-08T00:28:42.568Z,80.63
2022-08-08T00:29:44.223Z,81.23
2022-08-08T00:29:52.990Z,80.43
2022-08-08T00:30:28.309Z,76.69
2022-08-08T00:32:20.453Z,79.32
2022-08-08T00:32:21.135Z,76.69
2022-08-08T00:32:21.408Z,77.70
2022-08-08T00:32:49.054Z,79.62
2022-08-08T00:33:24.399Z,79.92
2022-08-08T00:34:17.187Z,81.64
2022-08-08T00:34:34.831Z,77.80
2022-08-08T00:35:10.144Z,78.91
2022-08-08T00:35:48.230Z,81.54
2022-08-08T00:36:25.660Z,82.35
2022-08-08T00:36:56.117Z,76.69
2022-08-08T00:37:47.443Z,77.29
2022-08-08T00:38:06.535Z,75.48
2022-08-08T00:38:44.527Z,76.89
2022-08-08T00:41:07.007Z,79.05
2022-08-08T00:41:07.521Z,77.39
2022-08-08T00:41:07.631Z,77.13
2022-08-08T00:41:11.396Z,78.00
2022-08-08T00:41:45.259Z,77.64
2022-08-08T00:42:31.535Z,77.33
2022-08-08T00:42:48.787Z,76.22
2022-08-08T00:43:23.878Z,75.01
2022-08-08T00:44:00.861Z,75.98
2022-08-08T00:44:34.218Z,77.43
2022-08-08T00:45:21.385Z,77.73
2022-08-08T00:45:44.720Z,76.22
2022-08-08T00:46:20.028Z,76.93
2022-08-08T00:46:57.252Z,76.12
2022-08-08T00:47:37.068Z,76.72
2022-08-08T00:48:06.771Z,78.14
2022-08-08T00:48:41.520Z,77.64
2022-08-08T00:49:22.879Z,76.62
2022-08-08T00:49:58.949Z,76.22
2022-08-08T00:50:27.286Z,76.82
2022-08-08T00:51:02.575Z,77.94
2022-08-08T00:51:38.946Z,77.84
2022-08-08T00:52:19.660Z,79.66
2022-08-08T00:52:51.499Z,78.55
2022-08-08T00:53:23.963Z,78.55
2022-08-08T00:54:04.453Z,78.75
2022-08-08T00:54:34.762Z,77.13
2022-08-08T00:55:09.965Z,77.67
2022-08-08T00:55:52.518Z,78.34
2022-08-08T00:56:20.206Z,78.78
2022-08-08T00:56:55.422Z,78.24
2022-08-08T00:57:36.136Z,77.94
2022-08-08T00:58:05.677Z,76.12
2022-08-08T00:58:43.772Z,79.75
2022-08-08T00:59:18.711Z,80.46
2022-08-08T00:59:51.286Z,81.48
2022-08-08T01:00:26.510Z,80.77
2022-08-08T01:01:01.985Z,79.79
2022-08-08T01:01:38.960Z,81.88
2022-08-08T01:03:15.579Z,81.41
2022-08-08T01:03:59.003Z,78.38
2022-08-08T01:04:01.763Z,79.66
2022-08-08T01:04:04.473Z,79.35
2022-08-08T01:04:33.661Z,77.43
2022-08-08T01:05:09.499Z,77.37
2022-08-08T01:05:58.604Z,78.48
2022-08-08T01:06:27.300Z,79.90
2022-08-08T01:07:00.188Z,80.50
2022-08-08T01:07:34.812Z,80.80
2022-08-08T01:08:05.933Z,82.02
2022-08-08T01:08:46.729Z,79.39
2022-08-08T01:09:35.904Z,79.08
2022-08-08T01:09:52.428Z,78.99
2022-08-08T01:10:27.561Z,80.40
2022-08-08T01:11:02.768Z,76.97
2022-08-08T01:11:37.902Z,77.17
2022-08-08T01:12:13.101Z,76.86
2022-08-08T01:12:48.127Z,79.08
2022-08-08T01:13:44.067Z,80.10
2022-08-08T01:13:58.970Z,78.48
2022-08-08T01:14:53.110Z,78.99
2022-08-08T01:15:09.301Z,78.28
2022-08-08T01:15:47.337Z,77.20
2022-08-08T01:16:20.062Z,79.29
2022-08-08T01:16:55.369Z,80.30
2022-08-08T01:17:51.513Z,82.73
2022-08-08T01:18:05.813Z,79.22
2022-08-08T01:18:52.626Z,79.90
2022-08-08T01:19:42.248Z,79.19
2022-08-08T01:20:02.021Z,79.63
2022-08-08T01:20:26.812Z,81.55
2022-08-08T01:21:01.843Z,79.53
2022-08-08T01:22:10.077Z,78.21
2022-08-08T01:22:15.635Z,79.29
2022-08-08T01:22:47.359Z,81.05
2022-08-08T01:24:05.447Z,82.53
2022-08-08T01:24:06.238Z,81.35
2022-08-08T01:24:33.093Z,82.62
2022-08-08T01:25:08.515Z,80.91
2022-08-08T01:25:43.418Z,81.11
2022-08-08T01:26:18.818Z,79.83
2022-08-08T01:26:54.128Z,80.44
2022-08-08T01:27:33.151Z,80.84
2022-08-08T01:28:04.554Z,79.33
2022-08-08T01:28:39.553Z,78.92
2022-08-08T01:29:14.628Z,79.33
2022-08-08T01:29:58.795Z,78.42
2022-08-08T01:30:25.360Z,82.16
2022-08-08T01:31:00.581Z,83.37
2022-08-08T01:32:06.354Z,82.87
2022-08-08T01:32:15.507Z,83.37
2022-08-08T01:32:46.040Z,85.25
2022-08-08T01:33:24.247Z,83.58
2022-08-08T01:34:01.218Z,82.16
2022-08-08T01:34:31.880Z,82.26
2022-08-08T01:35:11.230Z,80.54
2022-08-08T01:35:42.307Z,83.78
2022-08-08T01:36:17.510Z,82.46
2022-08-08T01:36:52.727Z,81.85
2022-08-08T01:37:56.848Z,82.56
2022-08-08T01:38:03.638Z,83.68
2022-08-08T01:38:39.073Z,84.28
2022-08-08T01:39:23.497Z,84.39
2022-08-08T01:39:49.911Z,83.78
2022-08-08T01:40:24.938Z,83.68
2022-08-08T01:41:00.038Z,82.56
2022-08-08T01:41:38.246Z,82.06
2022-08-08T01:42:10.576Z,83.07
2022-08-08T01:42:45.684Z,83.78
2022-08-08T01:43:20.872Z,84.19
2022-08-08T01:43:56.181Z,84.79
2022-08-08T01:44:31.590Z,85.90
2022-08-08T01:45:09.991Z,86.51
2022-08-08T01:45:42.099Z,85.90
2022-08-08T01:46:17.413Z,82.16
2022-08-08T01:46:52.902Z,82.76
2022-08-08T01:48:15.507Z,85.60
2022-08-08T01:48:23.806Z,85.19
2022-08-08T01:48:38.521Z,84.99
2022-08-08T01:49:14.145Z,85.10
2022-08-08T01:49:49.087Z,84.33
2022-08-08T01:50:25.460Z,84.89
2022-08-08T01:50:59.435Z,84.48
2022-08-08T01:52:33.615Z,84.69
2022-08-08T01:53:29.059Z,83.82
2022-08-08T01:54:04.332Z,82.26
2022-08-08T01:55:16.844Z,84.39
2022-08-08T01:55:17.773Z,84.69
2022-08-08T01:55:19.162Z,83.72
2022-08-08T01:56:04.566Z,82.30
2022-08-08T01:56:28.946Z,83.07
2022-08-08T01:56:29.201Z,82.30
2022-08-08T01:56:52.332Z,82.90
2022-08-08T01:58:04.222Z,84.69
2022-08-08T01:58:11.755Z,84.89
2022-08-08T01:58:39.750Z,82.60
2022-08-08T01:59:13.259Z,85.33
2022-08-08T02:00:01.640Z,85.80
2022-08-08T02:00:23.988Z,86.55
2022-08-08T02:00:59.346Z,84.93
2022-08-08T02:01:54.575Z,82.60
2022-08-08T02:02:10.029Z,84.63
2022-08-08T02:02:45.328Z,83.41
2022-08-08T02:03:54.470Z,82.60
2022-08-08T02:03:58.140Z,84.63
2022-08-08T02:04:30.712Z,84.42
2022-08-08T02:05:05.901Z,85.74
2022-08-08T02:05:56.374Z,85.24
2022-08-08T02:06:33.129Z,85.64
2022-08-08T02:06:52.006Z,85.84
2022-08-08T02:07:26.796Z,85.94
2022-08-08T02:08:02.038Z,83.92
2022-08-08T02:08:37.551Z,84.33
2022-08-08T02:09:17.664Z,84.33
2022-08-08T02:10:04.357Z,84.63
2022-08-08T02:10:30.234Z,85.64
2022-08-08T02:10:58.753Z,83.01
2022-08-08T02:11:52.651Z,82.20
2022-08-08T02:12:12.611Z,81.39
2022-08-08T02:12:44.995Z,82.44
2022-08-08T02:13:53.092Z,82.90
2022-08-08T02:13:55.753Z,83.51
2022-08-08T02:14:30.605Z,85.33
2022-08-08T02:15:11.096Z,81.90
2022-08-08T02:15:41.089Z,82.90
2022-08-08T02:16:20.756Z,81.02
2022-08-08T02:16:51.631Z,80.47
2022-08-08T02:17:26.956Z,82.84
2022-08-08T02:18:02.167Z,81.32
2022-08-08T02:18:37.644Z,83.55
2022-08-08T02:19:41.720Z,84.47
2022-08-08T02:20:07.412Z,82.34
2022-08-08T02:21:01.737Z,82.14
2022-08-08T02:21:01.933Z,83.65
2022-08-08T02:21:35.042Z,81.43
2022-08-08T02:22:10.161Z,83.76
2022-08-08T02:22:52.298Z,84.97
2022-08-08T02:23:21.090Z,84.36
2022-08-08T02:23:56.140Z,84.77
2022-08-08T02:24:31.362Z,84.27
2022-08-08T02:25:07.153Z,85.88
2022-08-08T02:25:47.018Z,85.68
2022-08-08T02:26:16.828Z,84.97
2022-08-08T02:26:52.242Z,85.74
2022-08-08T02:27:27.162Z,82.95
2022-08-08T02:28:02.462Z,84.97
2022-08-08T02:28:37.718Z,82.54
2022-08-08T02:29:18.786Z,83.45
2022-08-08T02:29:51.771Z,83.45
2022-08-08T02:30:25.398Z,84.36
2022-08-08T02:31:01.819Z,82.84
2022-08-08T02:31:58.281Z,82.24
2022-08-08T02:32:09.144Z,82.34
2022-08-08T02:32:44.673Z,81.93
2022-08-08T02:33:21.527Z,82.64
2022-08-08T02:34:07.178Z,82.44
2022-08-08T02:34:33.177Z,81.57
2022-08-08T02:35:07.791Z,80.65
2022-08-08T02:36:03.842Z,80.65
2022-08-08T02:36:16.330Z,81.23
2022-08-08T02:36:51.147Z,82.98
2022-08-08T02:37:52.632Z,83.09
2022-08-08T02:38:02.170Z,81.37
2022-08-08T02:38:37.596Z,82.28
2022-08-08T02:39:40.678Z,81.26
2022-08-08T02:40:00.281Z,82.28
2022-08-08T02:40:23.628Z,81.87
2022-08-08T02:40:58.948Z,85.01
2022-08-08T02:42:03.505Z,86.02
2022-08-08T02:42:10.620Z,86.43
2022-08-08T02:42:44.923Z,83.59
2022-08-08T02:44:36.931Z,84.61
2022-08-08T02:44:37.153Z,85.88
2022-08-08T02:44:38.767Z,85.42
2022-08-08T02:45:09.673Z,84.41
2022-08-08T02:45:54.317Z,84.41
2022-08-08T02:46:16.754Z,85.82
2022-08-08T02:46:52.370Z,85.62
2022-08-08T02:47:27.343Z,86.94
2022-08-08T02:48:02.642Z,87.24
2022-08-08T02:48:37.854Z,87.04
2022-08-08T02:49:13.384Z,88.72
2022-08-08T02:49:51.364Z,87.20
2022-08-08T02:50:23.500Z,84.97
2022-08-08T02:50:58.692Z,86.33
2022-08-08T02:51:46.778Z,85.52
2022-08-08T02:52:32.463Z,84.70
2022-08-08T02:52:51.357Z,83.18
2022-08-08T02:53:19.870Z,84.70
2022-08-08T02:53:54.990Z,84.61
2022-08-08T02:54:30.290Z,83.53
2022-08-08T02:55:05.424Z,81.97
2022-08-08T02:55:40.729Z,84.81
2022-08-08T02:56:16.028Z,85.82
2022-08-08T02:56:51.259Z,85.93
2022-08-08T02:57:26.867Z,84.50
2022-08-08T02:58:01.979Z,84.00
2022-08-08T02:58:37.395Z,85.93
2022-08-08T02:59:26.299Z,86.53
2022-08-08T02:59:58.460Z,87.14
2022-08-08T03:00:27.035Z,85.11
2022-08-08T03:00:58.787Z,85.82
2022-08-08T03:01:40.016Z,87.34
2022-08-08T03:02:09.537Z,85.93
2022-08-08T03:02:50.530Z,87.24
2022-08-08T03:05:00.656Z,85.82
2022-08-08T03:05:04.610Z,87.34
2022-08-08T03:05:05.295Z,84.81
2022-08-08T03:05:09.427Z,86.63
2022-08-08T03:05:45.421Z,87.54
2022-08-08T03:06:34.454Z,87.74
2022-08-08T03:06:50.924Z,88.05
2022-08-08T03:07:26.122Z,87.85
2022-08-08T03:08:01.326Z,88.35
2022-08-08T03:08:37.225Z,88.96
2022-08-08T03:09:12.812Z,88.15
2022-08-08T03:09:48.244Z,87.95
2022-08-08T03:10:33.484Z,88.35
2022-08-08T03:10:58.994Z,86.73
2022-08-08T03:12:01.767Z,86.43
2022-08-08T03:12:14.242Z,87.54
2022-08-08T03:13:01.812Z,88.66
2022-08-08T03:15:54.629Z,86.83
2022-08-08T03:15:56.574Z,86.47
2022-08-08T03:15:57.090Z,87.34
2022-08-08T03:15:57.762Z,87.24
2022-08-08T03:15:59.223Z,89.06
2022-08-08T03:16:34.348Z,87.34
2022-08-08T03:16:51.035Z,87.74
2022-08-08T03:17:39.432Z,84.10
2022-08-08T03:18:06.682Z,86.33
2022-08-08T03:18:37.038Z,88.05
2022-08-08T03:19:12.743Z,87.34
2022-08-08T03:19:51.031Z,87.24
2022-08-08T03:20:23.257Z,87.08
2022-08-08T03:20:58.384Z,85.96
2022-08-08T03:21:41.028Z,88.15
2022-08-08T03:22:38.084Z,86.68
2022-08-08T03:22:44.128Z,85.25
2022-08-08T03:23:19.338Z,85.96
2022-08-08T03:23:59.541Z,86.68
2022-08-08T03:24:29.984Z,85.36
2022-08-08T03:25:05.178Z,86.57
2022-08-08T03:25:40.694Z,87.28
2022-08-08T03:26:15.821Z,88.40
2022-08-08T03:26:51.151Z,88.49
2022-08-08T03:27:27.245Z,87.38
2022-08-08T03:28:01.352Z,88.15
2022-08-08T03:28:36.386Z,86.37
2022-08-08T03:29:20.505Z,86.27
2022-08-08T03:29:55.258Z,86.37
2022-08-08T03:30:21.838Z,86.16
2022-08-08T03:31:21.925Z,85.46
2022-08-08T03:31:38.066Z,86.47
2022-08-08T03:32:07.378Z,86.27
2022-08-08T03:32:42.415Z,84.64
2022-08-08T03:33:56.232Z,86.37
2022-08-08T03:33:56.355Z,86.57
2022-08-08T03:34:28.123Z,84.55
2022-08-08T03:35:04.010Z,84.85
2022-08-08T03:35:39.071Z,84.24
2022-08-08T03:36:19.563Z,86.41
2022-08-08T03:36:49.746Z,86.41
2022-08-08T03:38:54.009Z,84.34
2022-08-08T03:38:54.684Z,85.50
2022-08-08T03:38:57.989Z,84.48
2022-08-08T03:39:14.680Z,85.50
2022-08-08T03:39:52.054Z,84.89
2022-08-08T03:40:30.316Z,84.38
2022-08-08T03:40:56.823Z,86.31
2022-08-08T03:42:11.447Z,86.71
2022-08-08T03:42:27.196Z,87.63
2022-08-08T03:42:45.736Z,86.61
2022-08-08T03:43:20.145Z,85.39
2022-08-08T03:43:53.645Z,85.80
2022-08-08T03:44:28.667Z,86.61
2022-08-08T03:46:04.750Z,87.83
2022-08-08T03:46:07.145Z,87.32
2022-08-08T03:46:14.099Z,87.83
2022-08-08T03:46:49.370Z,87.32
2022-08-08T03:47:25.140Z,88.75
2022-08-08T03:48:00.186Z,88.34
2022-08-08T03:49:09.774Z,89.35
2022-08-08T03:49:57.917Z,86.91
2022-08-08T03:49:59.049Z,88.84
2022-08-08T03:50:24.562Z,89.15
2022-08-08T03:50:56.615Z,89.15
2022-08-08T03:51:50.278Z,88.64
2022-08-08T03:52:07.858Z,88.54
2022-08-08T03:52:45.133Z,89.25
2022-08-08T03:53:23.988Z,90.42
2022-08-08T03:53:53.377Z,89.45
2022-08-08T03:54:52.483Z,89.65
2022-08-08T03:55:10.522Z,89.35
2022-08-08T03:55:57.287Z,89.96
2022-08-08T03:56:31.492Z,89.55
2022-08-08T03:56:49.700Z,90.06
2022-08-08T03:58:30.877Z,90.26
2022-08-08T03:58:33.515Z,89.96
2022-08-08T03:58:37.739Z,90.36
2022-08-08T03:59:22.899Z,90.63
2022-08-08T04:00:02.898Z,90.73
2022-08-08T04:00:21.069Z,89.55
2022-08-08T04:01:20.706Z,89.96
2022-08-08T04:01:37.526Z,89.86
2022-08-08T04:02:31.688Z,90.47
2022-08-08T04:02:51.864Z,89.55
2022-08-08T04:03:19.278Z,90.88
2022-08-08T04:03:58.702Z,90.57
2022-08-08T04:04:30.989Z,90.06
2022-08-08T04:05:09.981Z,90.47
2022-08-08T04:05:49.818Z,90.88
2022-08-08T04:06:15.854Z,90.63
2022-08-08T04:06:51.171Z,90.06
2022-08-08T04:07:26.623Z,90.16
2022-08-08T04:08:02.141Z,89.96
2022-08-08T04:08:37.538Z,89.96
2022-08-08T04:09:12.485Z,89.55
2022-08-08T04:10:00.405Z,90.57
2022-08-08T04:10:23.514Z,90.36
2022-08-08T04:11:00.015Z,89.19
2022-08-08T04:11:48.063Z,89.50
2022-08-08T04:12:09.394Z,89.55
2022-08-08T04:12:44.519Z,91.38
2022-08-08T04:13:19.842Z,90.77
2022-08-08T04:14:04.358Z,90.57
2022-08-08T04:14:34.764Z,90.26
2022-08-08T04:15:05.799Z,89.86
2022-08-08T04:15:54.871Z,90.88
2022-08-08T04:16:18.598Z,90.57
2022-08-08T04:16:51.590Z,90.88
2022-08-08T04:17:46.361Z,90.81
2022-08-08T04:18:02.491Z,90.77
2022-08-08T04:18:44.717Z,89.65
2022-08-08T04:19:23.527Z,90.36
2022-08-08T04:19:48.370Z,90.77
2022-08-08T04:20:28.693Z,90.16
2022-08-08T04:20:58.937Z,90.67
2022-08-08T04:21:38.002Z,88.54
2022-08-08T04:22:09.559Z,89.59
2022-08-08T04:22:44.872Z,86.96
2022-08-08T04:23:19.979Z,87.77
2022-08-08T04:24:11.796Z,88.13
2022-08-08T04:24:31.319Z,88.38
2022-08-08T04:25:05.842Z,87.67
2022-08-08T04:25:41.284Z,87.97
2022-08-08T04:26:16.393Z,87.06
2022-08-08T04:26:57.363Z,86.45
2022-08-08T04:28:03.053Z,85.53
2022-08-08T04:28:36.216Z,87.06
2022-08-08T04:28:41.584Z,86.76
2022-08-08T04:29:13.082Z,87.46
2022-08-08T04:29:55.283Z,87.57
2022-08-08T04:30:23.511Z,86.96
2022-08-08T04:30:58.733Z,88.28
2022-08-08T04:31:59.658Z,88.28
2022-08-08T04:32:10.696Z,88.48
2022-08-08T04:32:46.950Z,88.99
2022-08-08T04:33:20.475Z,89.29
2022-08-08T04:33:55.662Z,90.11
2022-08-08T04:34:32.233Z,87.46
2022-08-08T04:35:06.656Z,88.48
2022-08-08T04:35:41.859Z,88.28
2022-08-08T04:36:17.073Z,88.38
2022-08-08T04:36:52.472Z,88.99
2022-08-08T04:37:32.224Z,89.29
2022-08-08T04:38:02.960Z,88.38
2022-08-08T04:38:38.604Z,87.87
2022-08-08T04:40:03.608Z,89.39
2022-08-08T04:40:05.462Z,89.70
2022-08-08T04:40:25.288Z,87.46
2022-08-08T04:40:59.436Z,86.96
2022-08-08T04:41:36.695Z,88.78
2022-08-08T04:42:11.361Z,86.76
2022-08-08T04:42:46.707Z,86.35
2022-08-08T04:43:19.914Z,87.67
2022-08-08T04:43:57.193Z,88.78
2022-08-08T04:44:30.039Z,89.29
2022-08-08T04:45:05.282Z,87.37
2022-08-08T04:45:40.462Z,86.55
2022-08-08T04:46:15.656Z,86.05
2022-08-08T04:46:52.517Z,86.35
2022-08-08T04:47:26.398Z,87.06
2022-08-08T04:48:01.889Z,86.76
2022-08-08T04:48:36.915Z,86.76
2022-08-08T04:49:12.218Z,86.86
2022-08-08T04:50:01.126Z,86.65
2022-08-08T04:50:24.769Z,86.45
2022-08-08T04:50:58.142Z,85.94
2022-08-08T04:51:36.713Z,86.65
2022-08-08T04:52:08.761Z,87.26
2022-08-08T04:52:43.978Z,88.28
2022-08-08T04:54:37.013Z,88.48
2022-08-08T04:54:38.396Z,88.38
2022-08-08T04:54:39.110Z,88.68
2022-08-08T04:55:06.433Z,88.07
2022-08-08T04:55:55.508Z,89.09
2022-08-08T04:56:15.629Z,86.45
2022-08-08T04:56:50.850Z,87.37
2022-08-08T04:57:26.113Z,86.55
2022-08-08T04:58:01.423Z,87.67
2022-08-08T04:58:36.538Z,87.57
2022-08-08T04:59:11.834Z,87.43
2022-08-08T04:59:47.158Z,87.67
2022-08-08T05:00:22.479Z,88.75
2022-08-08T05:00:57.598Z,89.50
2022-08-08T05:01:35.375Z,89.15
2022-08-08T05:02:08.139Z,89.04
2022-08-08T05:02:43.249Z,87.63
2022-08-08T05:04:08.304Z,86.61
2022-08-08T05:04:10.540Z,87.93
2022-08-08T05:04:29.309Z,88.54
2022-08-08T05:05:04.830Z,88.23
2022-08-08T05:05:45.219Z,87.52
2022-08-08T05:06:25.688Z,88.54
2022-08-08T05:06:52.409Z,88.95
2022-08-08T05:07:26.605Z,87.52
2022-08-08T05:08:02.738Z,86.31
2022-08-08T05:08:37.032Z,87.83
2022-08-08T05:09:12.441Z,87.77
2022-08-08T05:09:47.530Z,88.03
2022-08-08T05:10:23.055Z,88.13
2022-08-08T05:10:58.331Z,88.95
2022-08-08T05:11:38.977Z,89.35
2022-08-08T05:12:09.431Z,89.25
2022-08-08T05:13:00.327Z,88.84
2022-08-08T05:13:19.401Z,88.95
2022-08-08T05:13:57.975Z,89.25
2022-08-08T05:14:29.742Z,89.15
2022-08-08T05:15:05.266Z,88.03
2022-08-08T05:16:48.231Z,88.44
2022-08-08T05:16:50.925Z,89.35
2022-08-08T05:16:55.001Z,88.20
2022-08-08T05:17:25.870Z,88.80
2022-08-08T05:18:00.873Z,87.63
2022-08-08T05:18:36.078Z,88.64
2022-08-08T05:20:09.938Z,86.82
2022-08-08T05:20:09.938Z,87.63
2022-08-08T05:20:21.540Z,88.44
2022-08-08T05:20:56.878Z,88.23
2022-08-08T05:21:43.335Z,89.25
2022-08-08T05:22:07.289Z,88.09
2022-08-08T05:22:42.572Z,86.71
2022-08-08T05:23:17.884Z,87.22
2022-08-08T05:23:53.028Z,86.68
2022-08-08T05:24:28.453Z,86.57
2022-08-08T05:25:04.035Z,86.47
2022-08-08T05:25:41.357Z,86.47
2022-08-08T05:26:14.392Z,87.48
2022-08-08T05:26:49.479Z,86.88
2022-08-08T05:27:24.693Z,86.88
2022-08-08T05:27:59.988Z,87.48
2022-08-08T05:28:56.473Z,86.98
2022-08-08T05:29:10.961Z,86.68
2022-08-08T05:29:51.873Z,86.98
2022-08-08T05:30:28.290Z,86.77
2022-08-08T05:30:56.811Z,86.68
2022-08-08T05:32:04.888Z,86.77
2022-08-08T05:32:07.324Z,86.57
2022-08-08T05:32:42.823Z,87.04
2022-08-08T05:33:17.907Z,87.14
2022-08-08T05:33:52.973Z,86.22
2022-08-08T05:34:28.186Z,86.43
2022-08-08T05:35:05.397Z,86.22
2022-08-08T05:35:39.556Z,86.33
2022-08-08T05:36:25.524Z,86.57
2022-08-08T05:36:49.675Z,86.02
2022-08-08T05:37:28.301Z,85.31
2022-08-08T05:38:00.064Z,85.31
2022-08-08T05:38:35.574Z,86.02
2022-08-08T05:39:10.991Z,86.33
2022-08-08T05:39:46.196Z,85.42
2022-08-08T05:40:21.580Z,85.31
2022-08-08T05:40:58.088Z,85.01
2022-08-08T05:41:31.988Z,84.87
2022-08-08T05:42:07.164Z,84.77
2022-08-08T05:42:42.414Z,85.31
2022-08-08T05:44:02.800Z,85.38
2022-08-08T05:44:04.156Z,84.77
2022-08-08T05:44:31.269Z,85.27
2022-08-08T05:45:10.326Z,85.58
2022-08-08T05:45:42.840Z,85.38
2022-08-08T05:46:14.540Z,86.69
2022-08-08T05:46:51.384Z,85.33
2022-08-08T05:47:25.326Z,85.33
2022-08-08T05:48:01.713Z,86.25
2022-08-08T05:48:36.172Z,86.76
2022-08-08T05:49:11.569Z,86.25
2022-08-08T05:49:54.115Z,85.84
2022-08-08T05:50:21.883Z,85.64
2022-08-08T05:50:58.724Z,83.82
2022-08-08T05:51:48.379Z,84.33
2022-08-08T05:52:07.531Z,83.51
2022-08-08T05:52:43.274Z,83.82
2022-08-08T05:53:54.752Z,84.28
2022-08-08T05:54:27.387Z,83.92
2022-08-08T05:54:49.904Z,83.37
2022-08-08T05:55:09.002Z,83.82
2022-08-08T05:56:08.022Z,82.70
2022-08-08T05:56:15.538Z,82.26
2022-08-08T05:56:50.211Z,82.56
2022-08-08T05:58:03.916Z,82.97
2022-08-08T05:58:06.337Z,83.17
2022-08-08T05:58:36.351Z,82.56
2022-08-08T05:59:13.977Z,83.78
2022-08-08T05:59:58.711Z,83.64
2022-08-08T06:00:25.170Z,84.45
2022-08-08T06:00:57.197Z,84.34
2022-08-08T06:01:52.433Z,83.44
2022-08-08T06:02:07.527Z,82.53
2022-08-08T06:02:43.732Z,81.68
2022-08-08T06:03:29.341Z,80.87
2022-08-08T06:03:55.606Z,81.57
2022-08-08T06:04:28.670Z,82.18
2022-08-08T06:05:06.921Z,82.89
2022-08-08T06:05:38.966Z,81.17
2022-08-08T06:06:14.277Z,80.97
2022-08-08T06:06:50.332Z,81.03
2022-08-08T06:07:24.677Z,82.18
2022-08-08T06:08:02.582Z,80.46
2022-08-08T06:08:35.442Z,79.92
2022-08-08T06:09:59.105Z,79.01
2022-08-08T06:10:00.084Z,79.82
2022-08-08T06:10:24.435Z,79.58
2022-08-08T06:10:56.691Z,80.43
2022-08-08T06:11:32.107Z,80.49
2022-08-08T06:12:07.413Z,81.10
2022-08-08T06:12:42.597Z,79.99
2022-08-08T06:13:22.014Z,79.99
2022-08-08T06:13:52.996Z,80.69
2022-08-08T06:14:28.207Z,80.25
2022-08-08T06:15:03.965Z,78.74
2022-08-08T06:15:50.928Z,80.15
2022-08-08T06:16:14.218Z,79.74
2022-08-08T06:16:51.950Z,79.64
2022-08-08T06:17:50.349Z,79.34
2022-08-08T06:18:20.344Z,79.64
2022-08-08T06:18:35.389Z,77.62
2022-08-08T06:19:16.231Z,78.03
2022-08-08T06:19:46.508Z,78.23
2022-08-08T06:20:21.634Z,78.30
2022-08-08T06:20:57.278Z,76.68
2022-08-08T06:21:48.990Z,76.48
2022-08-08T06:22:33.664Z,78.09
2022-08-08T06:22:43.217Z,77.28
2022-08-08T06:23:18.323Z,75.98
2022-08-08T06:24:03.324Z,76.58
2022-08-08T06:24:30.480Z,76.34
2022-08-08T06:25:04.163Z,77.95
2022-08-08T06:26:38.396Z,77.75
2022-08-08T06:26:43.214Z,78.36
2022-08-08T06:26:57.132Z,77.35
2022-08-08T06:27:32.338Z,77.42
2022-08-08T06:28:07.560Z,78.63
2022-08-08T06:28:42.559Z,77.82
2022-08-08T06:29:48.627Z,78.32
2022-08-08T06:30:00.063Z,78.63
2022-08-08T06:30:28.568Z,77.58
2022-08-08T06:31:03.599Z,78.59
2022-08-08T06:32:09.301Z,76.31
2022-08-08T06:32:15.369Z,76.37
2022-08-08T06:32:52.506Z,75.67
2022-08-08T06:33:36.621Z,76.17
2022-08-08T06:34:26.238Z,76.47
2022-08-08T06:34:34.376Z,76.47
2022-08-08T06:36:04.378Z,75.23
2022-08-08T06:36:06.585Z,75.43
2022-08-08T06:36:20.178Z,75.33
2022-08-08T06:36:55.554Z,76.17
2022-08-08T06:37:37.306Z,76.23
2022-08-08T06:38:09.150Z,76.74
2022-08-08T06:38:42.777Z,77.20
2022-08-08T06:39:16.703Z,76.23
2022-08-08T06:39:56.503Z,76.50
2022-08-08T06:40:27.275Z,74.08
2022-08-08T06:41:02.512Z,73.88
2022-08-08T06:41:37.877Z,75.02
2022-08-08T06:42:13.255Z,74.38
2022-08-08T06:42:48.858Z,73.18
2022-08-08T06:43:30.717Z,72.17
2022-08-08T06:43:58.858Z,71.67
2022-08-08T06:44:33.857Z,72.17
2022-08-08T06:45:09.357Z,72.17
2022-08-08T06:45:44.551Z,72.77
2022-08-08T06:46:23.573Z,74.05
2022-08-08T06:46:55.155Z,74.65
2022-08-08T06:47:33.588Z,72.24
2022-08-08T06:48:05.693Z,74.35
2022-08-08T06:48:42.457Z,74.32
2022-08-08T06:49:17.121Z,74.65
2022-08-08T06:49:56.469Z,72.00
2022-08-08T06:50:31.967Z,71.50
2022-08-08T06:51:07.512Z,70.32
2022-08-08T06:51:47.177Z,70.93
2022-08-08T06:52:16.070Z,72.10
2022-08-08T06:52:50.430Z,72.20
2022-08-08T06:53:24.024Z,73.31
2022-08-08T06:54:00.741Z,72.50
2022-08-08T06:54:34.019Z,72.27
2022-08-08T06:55:09.291Z,71.50
2022-08-08T06:55:47.381Z,70.06
2022-08-08T06:56:19.690Z,70.76
2022-08-08T06:56:54.896Z,70.06
2022-08-08T06:57:44.112Z,70.36
2022-08-08T06:58:05.606Z,68.95
2022-08-08T06:58:40.685Z,68.95
2022-08-08T06:59:16.230Z,68.95
2022-08-08T07:00:10.839Z,68.82
2022-08-08T07:00:29.910Z,70.53
2022-08-08T07:01:52.272Z,72.03
2022-08-08T07:02:27.678Z,70.19
2022-08-08T07:02:27.719Z,72.24
2022-08-08T07:02:48.174Z,71.30
2022-08-08T07:03:52.728Z,72.50
2022-08-08T07:04:38.811Z,68.49
2022-08-08T07:04:40.394Z,68.49
2022-08-08T07:05:12.059Z,68.68
2022-08-08T07:05:44.373Z,69.96
2022-08-08T07:06:19.654Z,67.85
2022-08-08T07:06:54.903Z,70.36
2022-08-08T07:07:30.161Z,68.85
2022-08-08T07:08:05.193Z,68.35
2022-08-08T07:08:40.565Z,66.05
2022-08-08T07:09:18.060Z,67.02
2022-08-08T07:09:59.310Z,66.91
2022-08-08T07:10:26.779Z,67.42
2022-08-08T07:11:02.003Z,68.62
2022-08-08T07:11:50.721Z,70.23
2022-08-08T07:12:12.627Z,69.62
2022-08-08T07:12:48.260Z,67.52
2022-08-08T07:13:25.144Z,67.52
2022-08-08T07:14:00.527Z,68.29
2022-08-08T07:14:33.602Z,65.98
2022-08-08T07:15:09.140Z,64.34
2022-08-08T07:16:06.137Z,66.18
2022-08-08T07:16:18.977Z,64.95
2022-08-08T07:16:54.565Z,65.88
2022-08-08T07:17:40.087Z,67.08
2022-08-08T07:18:36.939Z,66.55
2022-08-08T07:18:41.372Z,66.72
2022-08-08T07:19:16.055Z,65.22
2022-08-08T07:19:51.149Z,65.62
2022-08-08T07:20:26.598Z,63.51
2022-08-08T07:21:02.083Z,65.92
2022-08-08T07:21:36.758Z,65.19
2022-08-08T07:22:19.183Z,63.68
2022-08-08T07:22:47.343Z,66.39
2022-08-08T07:23:23.548Z,65.48
2022-08-08T07:24:02.797Z,63.75
2022-08-08T07:24:32.976Z,64.98
2022-08-08T07:25:07.959Z,62.45
2022-08-08T07:25:44.143Z,63.25
2022-08-08T07:26:21.582Z,65.05
2022-08-08T07:26:53.799Z,62.88
2022-08-08T07:27:35.501Z,64.28
2022-08-08T07:28:07.723Z,66.36
2022-08-08T07:28:39.311Z,65.05
2022-08-08T07:29:58.746Z,65.42
2022-08-08T07:30:00.232Z,63.12
2022-08-08T07:30:25.670Z,63.42
2022-08-08T07:30:59.928Z,66.13
2022-08-08T07:31:35.786Z,65.22
2022-08-08T07:32:10.642Z,65.49
2022-08-08T07:32:45.748Z,66.39
2022-08-08T07:33:20.865Z,66.96
2022-08-08T07:33:59.402Z,65.76